Aviation Digital Data Service (ADDS)

Output produced by METARs form (1923 UTC 17 February 2018)
found at http://aviationweather.gov/adds/metars/
 
KHLG 171741Z 1718/1818 14008KT P6SM OVC100 
     FM171900 VRB05KT 2SM -SN OVC015 
     FM180000 25005KT 1/2SM SN OVC008 
     FM180200 26008KT P6SM VCSH OVC005 
     FM180400 26007KT P6SM BKN015 
     FM181400 30008KT P6SM OVC025